Norfolk, Virginia
Traffic Map
Current Weather Conditions
Norfolk, Virginia
Scattered Clouds
Scattered Clouds
79°
Feels Like: 82°
Wind Chill: 79° Ceiling: Unl
Heat Index: 82° Visibility: 10mi
Dew Point: 74° Wind: 14mph
Humidity: 84% Direction: 220° (SW)
Pressure: 29.86in Gusts: 0mph
Raw Report DataKORF 240551Z AUTO 22012KT 10SM SCT100 26/23 A2986 RMK AO2 SLP111 T02610233 10300 20261 58005 TSNO $
Traffic Incident Summary
Active as of:
Severity:
Category:
InformationThere was an issue retrieving the traffic information for this location. Please try a different location or try again shortly.
Advertisements
Track Severe Weather on mobile